Rechercher aéroport 
image banner adimage banner adimage banner ad
image banner ad

1O5 - Montague-Yreka Rohrer Field

Situé à Montague, United States

ICAO - 1O5, IATA -

Données fournies par Airmate  

Information générale

Coordonnées: N41°43'48" W122°32'40"
Élévation : 2528 feet MSL.
Variation magnétique : 15° East
Voir autres Aéroports à California

Données opérationnelles

Special qualification required
Heure actuelle UTC:
Heure actuelle locale:
Météo à : KSIY - Siskiyou County ( 9 km )
METAR: KSIY 251553Z AUTO 35004KT 10SM CLR 24/08 A3007 RMK AO2 SLP164 T02390083
Voir NOTAMs / SUP AIP / TFR affectant cet aéroport [VIEW]
Fréquences de communication: [VIEW]

Pistes:

Identifiant RWYQFULongueur (ft)Largeur (ft)SurfaceLDA (ft)
052080100GRASS
232080100GRASS
15336050ASPH
33336050ASPH

Coordonnées de l'aéroport

Adresse: Montague United States

Autres services d'aviation

Écoles de pilotage

Montague Soaring Center

Montague Soaring Center

Vue satellite de 1O5